createdAt,value
2019-01-02T00:00:33.748Z,1.50
2019-01-02T00:03:02.584Z,1.50
2019-01-02T00:05:31.828Z,1.70
2019-01-02T00:08:00.658Z,1.37
2019-01-02T00:10:29.747Z,1.60
2019-01-02T00:12:58.582Z,1.33
2019-01-02T00:15:27.704Z,1.40
2019-01-02T00:17:56.482Z,1.23
2019-01-02T00:20:25.390Z,1.50
2019-01-02T00:22:54.176Z,1.40
2019-01-02T00:25:22.922Z,1.40
2019-01-02T00:27:52.130Z,1.70
2019-01-02T00:30:20.889Z,1.33
2019-01-02T00:32:50.006Z,1.30
2019-01-02T00:35:18.843Z,1.40
2019-01-02T00:37:47.900Z,1.53
2019-01-02T00:40:17.156Z,1.37
2019-01-02T00:42:46.205Z,1.43
2019-01-02T00:45:14.962Z,1.60
2019-01-02T00:47:44.098Z,1.40
2019-01-02T00:50:12.944Z,1.57
2019-01-02T00:52:41.704Z,1.40
2019-01-02T00:55:10.635Z,1.40
2019-01-02T00:57:39.778Z,1.23
2019-01-02T01:00:18.092Z,1.10
2019-01-02T01:02:46.882Z,1.20
2019-01-02T01:05:15.620Z,1.27
2019-01-02T01:07:44.664Z,1.17
2019-01-02T01:10:15.449Z,1.70
2019-01-02T01:12:44.640Z,1.20
2019-01-02T01:15:13.488Z,1.30
2019-01-02T01:17:42.610Z,1.30
2019-01-02T01:20:12.638Z,1.00
2019-01-02T01:22:41.442Z,1.73
2019-01-02T01:25:10.191Z,1.40
2019-01-02T01:27:38.939Z,1.30
2019-01-02T01:30:08.966Z,1.20
2019-01-02T01:32:37.796Z,1.30
2019-01-02T01:35:08.392Z,1.30
2019-01-02T01:37:37.680Z,1.30
2019-01-02T01:40:09.356Z,1.30
2019-01-02T01:42:38.480Z,1.40
2019-01-02T01:45:09.447Z,1.20
2019-01-02T01:47:38.218Z,1.20
2019-01-02T01:50:08.173Z,1.20
2019-01-02T01:52:36.942Z,1.40
2019-01-02T01:55:06.218Z,1.30
2019-01-02T01:57:35.366Z,1.40
2019-01-02T02:00:05.925Z,1.30
2019-01-02T02:02:35.070Z,1.33
2019-01-02T02:05:04.010Z,1.43
2019-01-02T02:07:32.766Z,1.40
2019-01-02T02:10:01.889Z,1.50
2019-01-02T02:12:30.626Z,1.30
2019-01-02T02:14:59.364Z,1.27
2019-01-02T02:17:28.126Z,1.40
2019-01-02T02:19:57.133Z,1.20
2019-01-02T02:22:26.390Z,1.30
2019-01-02T02:24:55.287Z,1.30
2019-01-02T02:27:24.050Z,1.27
2019-01-02T02:29:52.984Z,1.10
2019-01-02T02:32:21.721Z,1.23
2019-01-02T02:34:50.462Z,1.30
2019-01-02T02:37:19.247Z,1.20
2019-01-02T02:39:48.003Z,1.27
2019-01-02T02:42:17.146Z,1.23
2019-01-02T02:44:46.384Z,1.20
2019-01-02T02:47:15.165Z,1.30
2019-01-02T02:49:43.960Z,1.30
2019-01-02T02:52:12.708Z,1.23
2019-01-02T02:54:41.466Z,1.20
2019-01-02T02:57:10.221Z,1.00
2019-01-02T02:59:39.184Z,1.20
2019-01-02T03:02:08.316Z,1.47
2019-01-02T03:04:37.596Z,1.20
2019-01-02T03:07:06.713Z,1.00
2019-01-02T03:09:35.830Z,1.10
2019-01-02T03:12:04.602Z,1.20
2019-01-02T03:14:33.343Z,1.17
2019-01-02T03:17:02.100Z,1.30
2019-01-02T03:19:31.082Z,1.30
2019-01-02T03:22:00.253Z,1.20
2019-01-02T03:24:29.286Z,1.23
2019-01-02T03:26:58.395Z,1.10
2019-01-02T03:29:27.154Z,1.50
2019-01-02T03:31:56.601Z,1.20
2019-01-02T03:34:25.622Z,1.30
2019-01-02T03:36:54.364Z,1.20
2019-01-02T03:39:23.530Z,1.13
2019-01-02T03:41:52.308Z,1.50
2019-01-02T03:44:21.054Z,1.17
2019-01-02T03:46:49.865Z,1.27
2019-01-02T03:49:18.594Z,1.10
2019-01-02T03:51:47.361Z,1.13
2019-01-02T03:54:16.110Z,1.27
2019-01-02T03:56:44.860Z,1.23
2019-01-02T03:59:13.598Z,1.17
2019-01-02T04:01:42.336Z,1.30
2019-01-02T04:04:11.194Z,1.30
2019-01-02T04:06:39.957Z,1.20
2019-01-02T04:09:10.640Z,1.40
2019-01-02T04:11:39.412Z,1.30
2019-01-02T04:14:08.147Z,1.23
2019-01-02T04:16:36.940Z,1.10
2019-01-02T04:19:05.679Z,1.20
2019-01-02T04:21:34.509Z,1.30
2019-01-02T04:24:03.313Z,1.17
2019-01-02T04:26:32.076Z,1.40
2019-01-02T04:29:00.848Z,1.20
2019-01-02T04:31:29.607Z,1.30
2019-01-02T04:33:58.375Z,1.27
2019-01-02T04:36:27.110Z,1.00
2019-01-02T04:38:55.871Z,1.30
2019-01-02T04:41:24.619Z,1.43
2019-01-02T04:43:53.350Z,1.23
2019-01-02T04:46:22.156Z,1.20
2019-01-02T04:48:50.877Z,1.30
2019-01-02T04:51:19.628Z,1.10
2019-01-02T04:53:48.373Z,1.30
2019-01-02T04:56:17.109Z,1.30
2019-01-02T04:58:45.894Z,1.30
2019-01-02T05:01:14.632Z,1.30
2019-01-02T05:03:43.387Z,1.30
2019-01-02T05:06:12.239Z,1.03
2019-01-02T05:08:40.993Z,1.30
2019-01-02T05:11:09.743Z,1.40
2019-01-02T05:13:38.485Z,1.30
2019-01-02T05:16:07.243Z,1.30
2019-01-02T05:18:36.001Z,1.30
2019-01-02T05:21:04.788Z,1.20
2019-01-02T05:23:33.559Z,1.40
2019-01-02T05:26:02.399Z,1.20
2019-01-02T05:28:31.148Z,1.10
2019-01-02T05:30:59.891Z,1.07
2019-01-02T05:33:28.634Z,1.10
2019-01-02T05:35:57.375Z,1.30
2019-01-02T05:38:26.135Z,1.30
2019-01-02T05:40:54.910Z,1.17
2019-01-02T05:43:23.671Z,1.20
2019-01-02T05:45:52.430Z,1.20
2019-01-02T05:48:21.200Z,1.10
2019-01-02T05:50:49.945Z,1.37
2019-01-02T05:53:18.759Z,1.20
2019-01-02T05:55:47.512Z,1.20
2019-01-02T05:58:16.265Z,1.33
2019-01-02T06:00:44.997Z,1.20
2019-01-02T06:03:13.837Z,1.07
2019-01-02T06:05:42.559Z,1.60
2019-01-02T06:08:11.313Z,1.17
2019-01-02T06:10:40.046Z,1.33
2019-01-02T06:13:08.799Z,1.37
2019-01-02T06:15:37.531Z,1.40
2019-01-02T06:18:06.310Z,1.10
2019-01-02T06:20:35.067Z,1.20
2019-01-02T06:23:03.821Z,1.33
2019-01-02T06:25:32.597Z,1.37
2019-01-02T06:28:01.330Z,1.30
2019-01-02T06:30:30.124Z,1.37
2019-01-02T06:32:58.952Z,1.60
2019-01-02T06:35:27.695Z,1.40
2019-01-02T06:37:56.456Z,1.30
2019-01-02T06:40:25.190Z,1.47
2019-01-02T06:42:54.094Z,1.20
2019-01-02T06:45:22.836Z,1.60
2019-01-02T06:47:51.631Z,1.30
2019-01-02T06:50:25.315Z,1.47
2019-01-02T06:52:54.046Z,1.10
2019-01-02T06:55:22.801Z,1.30
2019-01-02T06:57:51.544Z,1.40
2019-01-02T07:00:23.783Z,1.23
2019-01-02T07:02:52.713Z,1.40
2019-01-02T07:05:21.552Z,1.20
2019-01-02T07:07:50.360Z,1.30
2019-01-02T07:10:19.322Z,1.20
2019-01-02T07:12:49.609Z,1.23
2019-01-02T07:15:18.388Z,1.57
2019-01-02T07:17:47.465Z,1.30
2019-01-02T07:20:16.250Z,1.23
2019-01-02T07:22:45.037Z,1.30
2019-01-02T07:25:13.863Z,1.43
2019-01-02T07:27:42.696Z,1.40
2019-01-02T07:30:14.457Z,1.20
2019-01-02T07:32:43.233Z,1.10
2019-01-02T07:35:50.604Z,1.40
2019-01-02T07:38:45.423Z,1.50
2019-01-02T07:42:10.495Z,1.40
2019-01-02T07:45:13.783Z,1.33
2019-01-02T07:48:03.909Z,1.40
2019-01-02T07:51:16.679Z,1.20
2019-01-02T07:54:21.484Z,1.03
2019-01-02T07:57:31.385Z,1.40
2019-01-02T08:00:31.580Z,1.40
2019-01-02T08:04:08.723Z,1.40
2019-01-02T08:07:30.367Z,1.40
2019-01-02T08:10:46.175Z,1.17
2019-01-02T08:13:43.317Z,1.20
2019-01-02T08:16:49.403Z,1.60
2019-01-02T08:19:49.228Z,1.27
2019-01-02T08:23:02.153Z,1.40
2019-01-02T08:26:06.339Z,1.07
2019-01-02T08:29:16.635Z,1.40
2019-01-02T08:32:11.859Z,1.30
2019-01-02T08:35:13.554Z,1.20
2019-01-02T08:38:24.948Z,1.60
2019-01-02T08:41:35.985Z,1.40
2019-01-02T08:44:43.275Z,1.47
2019-01-02T08:48:20.400Z,1.40
2019-01-02T08:51:51.624Z,1.30
2019-01-02T08:55:12.857Z,1.43
2019-01-02T08:58:19.552Z,1.57
2019-01-02T09:01:34.415Z,1.60
2019-01-02T09:04:32.349Z,1.60
2019-01-02T09:07:52.025Z,1.83
2019-01-02T09:11:01.899Z,1.50
2019-01-02T09:14:07.923Z,1.80
2019-01-02T09:17:13.318Z,1.70
2019-01-02T09:20:29.652Z,1.80
2019-01-02T09:23:29.605Z,1.77
2019-01-02T09:26:19.080Z,1.80
2019-01-02T09:29:32.958Z,1.70
2019-01-02T09:32:22.232Z,1.50
2019-01-02T09:35:15.681Z,2.00
2019-01-02T09:38:19.382Z,2.07
2019-01-02T09:41:02.083Z,1.83
2019-01-02T09:44:18.205Z,2.00
2019-01-02T09:47:31.530Z,1.90
2019-01-02T09:50:30.601Z,1.70
2019-01-02T09:53:30.336Z,2.10
2019-01-02T09:56:43.710Z,2.17
2019-01-02T09:59:55.463Z,2.10
2019-01-02T10:03:01.396Z,1.70
2019-01-02T10:06:07.232Z,2.17
2019-01-02T10:08:57.611Z,2.10
2019-01-02T10:11:57.066Z,1.70
2019-01-02T10:15:08.741Z,2.17
2019-01-02T10:18:05.757Z,2.00
2019-01-02T10:21:09.431Z,2.03
2019-01-02T10:24:09.596Z,1.90
2019-01-02T10:27:30.676Z,2.10
2019-01-02T10:30:21.478Z,2.10
2019-01-02T10:33:28.809Z,2.10
2019-01-02T10:36:27.694Z,1.93
2019-01-02T10:39:25.523Z,2.00
2019-01-02T10:42:27.439Z,1.80
2019-01-02T10:45:42.373Z,2.20
2019-01-02T10:48:53.081Z,1.67
2019-01-02T10:52:12.323Z,1.80
2019-01-02T10:55:03.183Z,1.97
2019-01-02T10:58:10.096Z,1.97
2019-01-02T11:01:13.630Z,1.90
2019-01-02T11:04:20.903Z,1.80
2019-01-02T11:07:07.713Z,2.10
2019-01-02T11:10:19.865Z,1.80
2019-01-02T11:13:21.703Z,2.07
2019-01-02T11:16:27.575Z,1.90
2019-01-02T11:19:24.371Z,1.70
2019-01-02T11:22:11.131Z,2.10
2019-01-02T11:25:02.765Z,1.70
2019-01-02T11:28:07.597Z,1.80
2019-01-02T11:31:13.407Z,1.73
2019-01-02T11:34:22.116Z,1.90
2019-01-02T11:37:26.959Z,2.20
2019-01-02T11:40:45.914Z,2.10
2019-01-02T11:43:57.725Z,1.77
2019-01-02T11:46:27.088Z,1.80
2019-01-02T11:48:56.991Z,1.73
2019-01-02T11:51:25.897Z,1.80
2019-01-02T11:53:54.655Z,1.90
2019-01-02T11:56:23.567Z,1.93
2019-01-02T11:58:52.334Z,2.03
2019-01-02T12:01:21.108Z,1.70
2019-01-02T12:03:49.863Z,2.03
2019-01-02T12:06:18.631Z,1.73
2019-01-02T12:08:47.380Z,1.70
2019-01-02T12:11:16.134Z,1.60
2019-01-02T12:13:44.968Z,1.77
2019-01-02T12:16:13.720Z,1.77
2019-01-02T12:18:42.488Z,1.87
2019-01-02T12:21:11.283Z,1.93
2019-01-02T12:23:40.055Z,1.93
2019-01-02T12:26:08.864Z,1.83
2019-01-02T12:28:37.627Z,1.70
2019-01-02T12:31:06.381Z,1.90
2019-01-02T12:33:35.141Z,1.63
2019-01-02T12:36:03.919Z,1.80
2019-01-02T12:38:32.668Z,1.80
2019-01-02T12:41:01.434Z,1.70
2019-01-02T12:43:30.199Z,1.70
2019-01-02T12:45:59.034Z,2.20
2019-01-02T12:48:27.794Z,1.83
2019-01-02T12:50:56.578Z,1.90
2019-01-02T12:53:25.345Z,1.90
2019-01-02T12:55:54.180Z,1.63
2019-01-02T12:58:23.017Z,1.80
2019-01-02T13:00:59.809Z,1.80
2019-01-02T13:04:01.531Z,1.80
2019-01-02T13:07:05.095Z,2.27
2019-01-02T13:10:26.344Z,1.80
2019-01-02T13:13:47.008Z,2.10
2019-01-02T13:17:02.143Z,1.60
2019-01-02T13:19:51.385Z,1.80
2019-01-02T13:23:06.000Z,1.73
2019-01-02T13:26:31.027Z,1.77
2019-01-02T13:29:09.974Z,1.50
2019-01-02T13:32:22.995Z,1.60
2019-01-02T13:35:30.410Z,1.90
2019-01-02T13:38:27.554Z,1.77
2019-01-02T13:42:07.597Z,1.90
2019-01-02T13:45:12.802Z,1.53
2019-01-02T13:48:21.742Z,1.73
2019-01-02T13:51:08.130Z,1.70
2019-01-02T13:53:36.870Z,1.70
2019-01-02T13:56:07.631Z,1.73
2019-01-02T13:58:36.480Z,1.53
2019-01-02T14:01:05.284Z,1.50
2019-01-02T14:03:34.046Z,1.70
2019-01-02T14:06:02.814Z,1.70
2019-01-02T14:08:31.754Z,1.80
2019-01-02T14:11:00.506Z,1.60
2019-01-02T14:13:29.373Z,1.37
2019-01-02T14:15:58.134Z,1.87
2019-01-02T14:18:26.907Z,1.70
2019-01-02T14:20:55.688Z,1.90
2019-01-02T14:23:24.427Z,1.60
2019-01-02T14:25:53.212Z,1.60
2019-01-02T14:28:21.957Z,1.50
2019-01-02T14:30:50.968Z,1.67
2019-01-02T14:33:19.760Z,1.70
2019-01-02T14:35:48.492Z,1.70
2019-01-02T14:38:17.254Z,1.60
2019-01-02T14:40:46.066Z,1.33
2019-01-02T14:43:14.858Z,1.70
2019-01-02T14:45:43.834Z,1.50
2019-01-02T14:48:12.579Z,1.67
2019-01-02T14:50:41.336Z,1.50
2019-01-02T14:53:10.188Z,1.60
2019-01-02T14:55:38.951Z,1.40
2019-01-02T14:58:07.730Z,1.80
2019-01-02T15:00:36.523Z,1.70
2019-01-02T15:03:05.286Z,1.40
2019-01-02T15:05:34.171Z,1.60
2019-01-02T15:08:02.922Z,1.53
2019-01-02T15:10:31.749Z,1.70
2019-01-02T15:13:00.525Z,1.80
2019-01-02T15:15:29.261Z,1.57
2019-01-02T15:17:58.053Z,1.80
2019-01-02T15:20:26.829Z,1.63
2019-01-02T15:22:55.541Z,1.50
2019-01-02T15:25:24.306Z,1.80
2019-01-02T15:27:56.812Z,1.73
2019-01-02T15:30:25.648Z,1.47
2019-01-02T15:32:54.606Z,1.50
2019-01-02T15:35:23.445Z,1.53
2019-01-02T15:37:52.200Z,1.50
2019-01-02T15:40:20.968Z,1.50
2019-01-02T15:42:49.744Z,1.73
2019-01-02T15:45:18.496Z,1.70
2019-01-02T15:47:47.445Z,1.90
2019-01-02T15:50:16.209Z,1.60
2019-01-02T15:52:45.016Z,1.80
2019-01-02T15:55:13.834Z,1.43
2019-01-02T15:57:42.656Z,1.50
2019-01-02T16:00:13.533Z,1.67
2019-01-02T16:02:42.280Z,1.60
2019-01-02T16:05:11.977Z,1.50
2019-01-02T16:07:40.843Z,1.83
2019-01-02T16:10:10.680Z,1.40
2019-01-02T16:12:39.430Z,1.60
2019-01-02T16:15:08.876Z,1.60
2019-01-02T16:17:37.662Z,1.70
2019-01-02T16:20:08.978Z,1.67
2019-01-02T16:22:38.240Z,1.57
2019-01-02T16:25:08.083Z,1.80
2019-01-02T16:27:36.891Z,1.57
2019-01-02T16:30:06.702Z,1.67
2019-01-02T16:32:35.536Z,1.60
2019-01-02T16:35:04.303Z,1.80
2019-01-02T16:37:33.102Z,1.83
2019-01-02T16:40:02.055Z,1.93
2019-01-02T16:42:30.902Z,1.63
2019-01-02T16:44:59.712Z,1.60
2019-01-02T16:47:28.609Z,1.70
2019-01-02T16:49:57.361Z,1.70
2019-01-02T16:52:26.142Z,1.60
2019-01-02T16:54:55.065Z,1.80
2019-01-02T16:57:23.916Z,1.60
2019-01-02T16:59:52.746Z,1.83
2019-01-02T17:02:21.554Z,1.67
2019-01-02T17:04:50.336Z,1.67
2019-01-02T17:07:19.111Z,1.90
2019-01-02T17:09:47.911Z,1.57
2019-01-02T17:12:16.637Z,1.33
2019-01-02T17:14:45.478Z,1.70
2019-01-02T17:17:14.252Z,1.77
2019-01-02T17:19:43.040Z,2.10
2019-01-02T17:22:11.955Z,1.53
2019-01-02T17:24:40.790Z,1.60
2019-01-02T17:27:09.586Z,1.70
2019-01-02T17:29:38.446Z,1.70
2019-01-02T17:32:07.245Z,1.50
2019-01-02T17:34:36.112Z,1.90
2019-01-02T17:37:04.946Z,1.57
2019-01-02T17:39:33.718Z,1.67
2019-01-02T17:42:02.513Z,1.60
2019-01-02T17:44:31.297Z,1.60
2019-01-02T17:47:02.479Z,1.70
2019-01-02T17:49:31.283Z,1.50
2019-01-02T17:52:00.149Z,1.80
2019-01-02T17:54:29.014Z,1.63
2019-01-02T17:56:57.791Z,1.70
2019-01-02T17:59:26.669Z,1.83
2019-01-02T18:01:55.451Z,1.63
2019-01-02T18:04:24.342Z,1.60
2019-01-02T18:06:53.109Z,1.80
2019-01-02T18:09:21.909Z,1.90
2019-01-02T18:11:50.776Z,1.90
2019-01-02T18:14:21.443Z,1.63
2019-01-02T18:16:50.311Z,1.80
2019-01-02T18:19:19.137Z,1.60
2019-01-02T18:21:48.049Z,1.83
2019-01-02T18:24:17.035Z,1.53
2019-01-02T18:26:46.026Z,1.80
2019-01-02T18:29:15.016Z,1.70
2019-01-02T18:31:43.895Z,1.93
2019-01-02T18:34:12.848Z,1.70
2019-01-02T18:36:41.905Z,1.63
2019-01-02T18:39:10.863Z,1.73
2019-01-02T18:41:39.947Z,1.90
2019-01-02T18:44:08.898Z,2.00
2019-01-02T18:46:37.846Z,1.90
2019-01-02T18:49:06.784Z,1.60
2019-01-02T18:51:35.841Z,1.50
2019-01-02T18:54:04.892Z,1.80
2019-01-02T18:56:34.080Z,1.90
2019-01-02T18:59:03.071Z,1.77
2019-01-02T19:01:32.459Z,1.90
2019-01-02T19:04:01.478Z,1.80
2019-01-02T19:06:30.845Z,1.80
2019-01-02T19:08:59.817Z,1.90
2019-01-02T19:11:29.072Z,1.73
2019-01-02T19:13:58.174Z,1.90
2019-01-02T19:16:27.191Z,1.93
2019-01-02T19:18:56.203Z,1.70
2019-01-02T19:21:26.778Z,1.70
2019-01-02T19:23:55.886Z,1.70
2019-01-02T19:26:25.252Z,1.77
2019-01-02T19:28:55.524Z,1.83
2019-01-02T19:31:25.668Z,2.20
2019-01-02T19:33:55.075Z,1.97
2019-01-02T19:36:24.182Z,1.90
2019-01-02T19:38:53.260Z,1.80
2019-01-02T19:41:22.289Z,2.17
2019-01-02T19:43:51.421Z,2.47
2019-01-02T19:46:22.076Z,1.97
2019-01-02T19:48:52.202Z,2.10
2019-01-02T19:51:21.353Z,1.87
2019-01-02T19:53:50.594Z,1.87
2019-01-02T19:56:20.734Z,2.37
2019-01-02T19:58:49.769Z,2.00
2019-01-02T20:01:19.811Z,1.73
2019-01-02T20:03:48.984Z,1.90
2019-01-02T20:06:18.093Z,1.87
2019-01-02T20:08:47.191Z,1.80
2019-01-02T20:11:20.567Z,1.73
2019-01-02T20:13:49.759Z,1.70
2019-01-02T20:16:19.106Z,2.10
2019-01-02T20:18:48.754Z,1.90
2019-01-02T20:21:19.419Z,2.17
2019-01-02T20:23:50.835Z,2.20
2019-01-02T20:26:22.726Z,1.90
2019-01-02T20:28:51.845Z,1.90
2019-01-02T20:31:21.042Z,1.73
2019-01-02T20:33:50.863Z,2.03
2019-01-02T20:36:21.963Z,2.23
2019-01-02T20:38:51.334Z,1.90
2019-01-02T20:41:20.466Z,2.20
2019-01-02T20:43:50.617Z,2.20
2019-01-02T20:46:19.994Z,2.10
2019-01-02T20:48:53.946Z,2.03
2019-01-02T20:51:32.667Z,2.20
2019-01-02T20:54:04.791Z,2.00
2019-01-02T20:56:34.267Z,1.93
2019-01-02T20:59:03.575Z,1.97
2019-01-02T21:01:33.099Z,1.87
2019-01-02T21:04:02.664Z,1.97
2019-01-02T21:06:32.070Z,1.77
2019-01-02T21:09:01.522Z,1.90
2019-01-02T21:11:30.896Z,2.10
2019-01-02T21:14:00.004Z,2.00
2019-01-02T21:16:29.165Z,2.10
2019-01-02T21:18:58.366Z,2.23
2019-01-02T21:21:27.510Z,2.27
2019-01-02T21:23:56.901Z,2.50
2019-01-02T21:26:26.357Z,2.07
2019-01-02T21:28:55.510Z,2.13
2019-01-02T21:31:24.641Z,2.40
2019-01-02T21:33:55.072Z,2.30
2019-01-02T21:36:24.253Z,2.30
2019-01-02T21:38:54.202Z,2.10
2019-01-02T21:41:25.174Z,2.10
2019-01-02T21:43:55.099Z,2.10
2019-01-02T21:46:27.280Z,2.40
2019-01-02T21:48:56.402Z,2.20
2019-01-02T21:51:25.482Z,2.17
2019-01-02T21:53:54.701Z,2.63
2019-01-02T21:56:24.145Z,2.30
2019-01-02T21:58:54.897Z,2.30
2019-01-02T22:01:24.035Z,2.37
2019-01-02T22:03:55.414Z,2.30
2019-01-02T22:06:24.529Z,2.00
2019-01-02T22:08:53.546Z,2.13
2019-01-02T22:11:22.674Z,1.97
2019-01-02T22:13:52.124Z,2.30
2019-01-02T22:16:21.176Z,2.37
2019-01-02T22:18:50.768Z,2.03
2019-01-02T22:21:20.365Z,2.30
2019-01-02T22:23:49.349Z,2.43
2019-01-02T22:26:18.481Z,1.90
2019-01-02T22:28:47.533Z,2.13
2019-01-02T22:31:16.624Z,2.00
2019-01-02T22:33:45.520Z,1.93
2019-01-02T22:36:14.597Z,2.20
2019-01-02T22:38:43.562Z,2.40
2019-01-02T22:41:12.647Z,2.27
2019-01-02T22:43:41.882Z,2.23
2019-01-02T22:46:10.854Z,2.00
2019-01-02T22:48:39.838Z,1.90
2019-01-02T22:51:08.777Z,2.33
2019-01-02T22:53:37.626Z,2.17
2019-01-02T22:56:06.898Z,2.20
2019-01-02T22:58:35.936Z,2.70
2019-01-02T23:01:29.920Z,2.40
2019-01-02T23:04:35.878Z,2.43
2019-01-02T23:07:24.218Z,2.40
2019-01-02T23:10:24.074Z,3.07
2019-01-02T23:13:27.063Z,2.63
2019-01-02T23:16:15.040Z,2.60
2019-01-02T23:19:00.790Z,2.80
2019-01-02T23:21:47.446Z,2.60
2019-01-02T23:24:32.765Z,2.90
2019-01-02T23:27:21.691Z,2.50
2019-01-02T23:30:24.796Z,2.47
2019-01-02T23:33:15.265Z,2.83
2019-01-02T23:36:15.217Z,2.80
2019-01-02T23:39:06.242Z,2.70
2019-01-02T23:42:00.004Z,2.83
2019-01-02T23:44:50.972Z,2.70
2019-01-02T23:47:38.090Z,3.00
2019-01-02T23:50:21.842Z,2.53
2019-01-02T23:53:09.664Z,2.90
2019-01-02T23:56:06.437Z,2.67
2019-01-02T23:59:12.619Z,3.00
